sensor_id;sensor_type;location;lat;lon;timestamp;temperature;humidity
14014;DHT22;49110;52.584;13.408;2024-03-08T00:00:52;4.50;93.00
14014;DHT22;49110;52.584;13.408;2024-03-08T00:01:53;4.50;92.90
14014;DHT22;49110;52.584;13.408;2024-03-08T00:02:53;4.50;92.90
14014;DHT22;49110;52.584;13.408;2024-03-08T00:03:54;4.40;92.80
14014;DHT22;49110;52.584;13.408;2024-03-08T00:04:54;4.40;92.80
14014;DHT22;49110;52.584;13.408;2024-03-08T00:05:55;4.40;92.80
14014;DHT22;49110;52.584;13.408;2024-03-08T00:06:56;4.40;92.80
14014;DHT22;49110;52.584;13.408;2024-03-08T00:07:57;4.40;92.80
14014;DHT22;49110;52.584;13.408;2024-03-08T00:08:57;4.50;92.80
14014;DHT22;49110;52.584;13.408;2024-03-08T00:09:58;4.50;92.90
14014;DHT22;49110;52.584;13.408;2024-03-08T00:10:59;4.50;93.00
14014;DHT22;49110;52.584;13.408;2024-03-08T00:11:59;4.60;92.90
14014;DHT22;49110;52.584;13.408;2024-03-08T00:13:00;4.50;92.90
14014;DHT22;49110;52.584;13.408;2024-03-08T00:14:00;4.60;93.00
14014;DHT22;49110;52.584;13.408;2024-03-08T00:15:01;4.60;93.00
14014;DHT22;49110;52.584;13.408;2024-03-08T00:16:02;4.60;92.90
14014;DHT22;49110;52.584;13.408;2024-03-08T00:17:03;4.60;92.90
14014;DHT22;49110;52.584;13.408;2024-03-08T00:18:04;4.50;93.10
14014;DHT22;49110;52.584;13.408;2024-03-08T00:19:04;4.60;93.10
14014;DHT22;49110;52.584;13.408;2024-03-08T00:20:06;4.60;93.20
14014;DHT22;49110;52.584;13.408;2024-03-08T00:21:08;4.60;93.20
14014;DHT22;49110;52.584;13.408;2024-03-08T00:22:09;4.50;93.20
14014;DHT22;49110;52.584;13.408;2024-03-08T00:23:11;4.50;93.30
14014;DHT22;49110;52.584;13.408;2024-03-08T00:24:12;4.50;93.30
14014;DHT22;49110;52.584;13.408;2024-03-08T00:25:12;4.50;93.10
14014;DHT22;49110;52.584;13.408;2024-03-08T00:26:13;4.40;93.00
14014;DHT22;49110;52.584;13.408;2024-03-08T00:27:14;4.50;93.10
14014;DHT22;49110;52.584;13.408;2024-03-08T00:28:16;4.50;93.00
14014;DHT22;49110;52.584;13.408;2024-03-08T00:29:17;4.50;93.10
14014;DHT22;49110;52.584;13.408;2024-03-08T00:30:17;4.50;93.10
14014;DHT22;49110;52.584;13.408;2024-03-08T00:31:18;4.50;93.00
14014;DHT22;49110;52.584;13.408;2024-03-08T00:32:19;4.50;93.00
14014;DHT22;49110;52.584;13.408;2024-03-08T00:33:19;4.50;93.10
14014;DHT22;49110;52.584;13.408;2024-03-08T00:34:20;4.50;93.20
14014;DHT22;49110;52.584;13.408;2024-03-08T00:35:20;4.50;93.10
14014;DHT22;49110;52.584;13.408;2024-03-08T00:36:21;4.50;93.10
14014;DHT22;49110;52.584;13.408;2024-03-08T00:37:21;4.40;92.90
14014;DHT22;49110;52.584;13.408;2024-03-08T00:38:22;4.30;92.90
14014;DHT22;49110;52.584;13.408;2024-03-08T00:39:22;4.20;93.00
14014;DHT22;49110;52.584;13.408;2024-03-08T00:40:23;4.10;93.00
14014;DHT22;49110;52.584;13.408;2024-03-08T00:41:24;3.90;93.10
14014;DHT22;49110;52.584;13.408;2024-03-08T00:42:26;3.80;93.30
14014;DHT22;49110;52.584;13.408;2024-03-08T00:43:27;3.80;93.50
14014;DHT22;49110;52.584;13.408;2024-03-08T00:44:28;3.90;93.60
14014;DHT22;49110;52.584;13.408;2024-03-08T00:45:29;3.90;93.50
14014;DHT22;49110;52.584;13.408;2024-03-08T00:46:30;3.90;93.60
14014;DHT22;49110;52.584;13.408;2024-03-08T00:47:32;4.00;93.60
14014;DHT22;49110;52.584;13.408;2024-03-08T00:48:32;4.10;93.70
14014;DHT22;49110;52.584;13.408;2024-03-08T00:49:33;4.10;93.50
14014;DHT22;49110;52.584;13.408;2024-03-08T00:50:33;4.10;93.40
14014;DHT22;49110;52.584;13.408;2024-03-08T00:51:34;4.10;93.50
14014;DHT22;49110;52.584;13.408;2024-03-08T00:52:35;4.10;93.50
14014;DHT22;49110;52.584;13.408;2024-03-08T00:53:36;4.20;93.70
14014;DHT22;49110;52.584;13.408;2024-03-08T00:54:36;4.20;93.40
14014;DHT22;49110;52.584;13.408;2024-03-08T00:55:37;4.10;93.30
14014;DHT22;49110;52.584;13.408;2024-03-08T00:56:38;3.90;93.30
14014;DHT22;49110;52.584;13.408;2024-03-08T00:57:39;3.80;93.40
14014;DHT22;49110;52.584;13.408;2024-03-08T00:58:41;3.60;93.60
14014;DHT22;49110;52.584;13.408;2024-03-08T00:59:41;3.60;93.70
14014;DHT22;49110;52.584;13.408;2024-03-08T01:00:42;3.60;93.90
14014;DHT22;49110;52.584;13.408;2024-03-08T01:01:42;3.50;94.00
14014;DHT22;49110;52.584;13.408;2024-03-08T01:02:44;3.50;94.10
14014;DHT22;49110;52.584;13.408;2024-03-08T01:03:45;3.30;94.10
14014;DHT22;49110;52.584;13.408;2024-03-08T01:04:45;3.30;94.30
14014;DHT22;49110;52.584;13.408;2024-03-08T01:05:47;3.10;94.30
14014;DHT22;49110;52.584;13.408;2024-03-08T01:06:48;3.10;94.50
14014;DHT22;49110;52.584;13.408;2024-03-08T01:07:48;3.10;94.60
14014;DHT22;49110;52.584;13.408;2024-03-08T01:08:50;3.10;94.60
14014;DHT22;49110;52.584;13.408;2024-03-08T01:09:52;3.10;94.70
14014;DHT22;49110;52.584;13.408;2024-03-08T01:10:52;3.20;94.80
14014;DHT22;49110;52.584;13.408;2024-03-08T01:11:56;3.20;94.70
14014;DHT22;49110;52.584;13.408;2024-03-08T01:12:57;3.20;94.70
14014;DHT22;49110;52.584;13.408;2024-03-08T01:14:00;3.20;94.70
14014;DHT22;49110;52.584;13.408;2024-03-08T01:15:00;3.30;94.80
14014;DHT22;49110;52.584;13.408;2024-03-08T01:16:01;3.30;94.80
14014;DHT22;49110;52.584;13.408;2024-03-08T01:17:01;3.40;94.70
14014;DHT22;49110;52.584;13.408;2024-03-08T01:18:02;3.40;94.70
14014;DHT22;49110;52.584;13.408;2024-03-08T01:19:02;3.40;94.60
14014;DHT22;49110;52.584;13.408;2024-03-08T01:20:04;3.40;94.70
14014;DHT22;49110;52.584;13.408;2024-03-08T01:21:05;3.60;94.70
14014;DHT22;49110;52.584;13.408;2024-03-08T01:22:06;3.60;94.60
14014;DHT22;49110;52.584;13.408;2024-03-08T01:23:07;3.70;94.60
14014;DHT22;49110;52.584;13.408;2024-03-08T01:24:08;3.70;94.50
14014;DHT22;49110;52.584;13.408;2024-03-08T01:25:09;3.70;94.30
14014;DHT22;49110;52.584;13.408;2024-03-08T01:26:09;3.70;94.50
14014;DHT22;49110;52.584;13.408;2024-03-08T01:27:10;3.70;94.40
14014;DHT22;49110;52.584;13.408;2024-03-08T01:28:10;3.70;94.30
14014;DHT22;49110;52.584;13.408;2024-03-08T01:29:11;3.70;94.20
14014;DHT22;49110;52.584;13.408;2024-03-08T01:30:11;3.80;94.30
14014;DHT22;49110;52.584;13.408;2024-03-08T01:31:12;3.80;94.40
14014;DHT22;49110;52.584;13.408;2024-03-08T01:32:14;3.90;94.50
14014;DHT22;49110;52.584;13.408;2024-03-08T01:33:15;3.90;94.40
14014;DHT22;49110;52.584;13.408;2024-03-08T01:34:15;3.80;94.20
14014;DHT22;49110;52.584;13.408;2024-03-08T01:35:16;3.80;94.20
14014;DHT22;49110;52.584;13.408;2024-03-08T01:36:16;3.90;94.40
14014;DHT22;49110;52.584;13.408;2024-03-08T01:37:19;3.90;94.60
14014;DHT22;49110;52.584;13.408;2024-03-08T01:38:20;3.90;94.60
14014;DHT22;49110;52.584;13.408;2024-03-08T01:39:22;3.90;94.60
14014;DHT22;49110;52.584;13.408;2024-03-08T01:40:22;3.90;94.70
14014;DHT22;49110;52.584;13.408;2024-03-08T01:41:23;3.90;94.60
14014;DHT22;49110;52.584;13.408;2024-03-08T01:42:23;3.80;94.30
14014;DHT22;49110;52.584;13.408;2024-03-08T01:43:28;3.80;94.30
14014;DHT22;49110;52.584;13.408;2024-03-08T01:44:28;3.80;94.40
14014;DHT22;49110;52.584;13.408;2024-03-08T01:45:30;3.70;94.20
14014;DHT22;49110;52.584;13.408;2024-03-08T01:46:35;3.70;94.50
14014;DHT22;49110;52.584;13.408;2024-03-08T01:47:36;3.70;94.40
14014;DHT22;49110;52.584;13.408;2024-03-08T01:48:37;3.70;94.70
14014;DHT22;49110;52.584;13.408;2024-03-08T01:49:38;3.70;94.80
14014;DHT22;49110;52.584;13.408;2024-03-08T01:50:39;3.70;94.80
14014;DHT22;49110;52.584;13.408;2024-03-08T01:51:40;3.70;94.80
14014;DHT22;49110;52.584;13.408;2024-03-08T01:52:42;3.80;94.80
14014;DHT22;49110;52.584;13.408;2024-03-08T01:53:45;3.80;94.60
14014;DHT22;49110;52.584;13.408;2024-03-08T01:54:46;3.80;94.30
14014;DHT22;49110;52.584;13.408;2024-03-08T01:55:49;3.60;94.10
14014;DHT22;49110;52.584;13.408;2024-03-08T01:56:50;3.40;94.30
14014;DHT22;49110;52.584;13.408;2024-03-08T01:57:50;3.10;94.50
14014;DHT22;49110;52.584;13.408;2024-03-08T01:58:51;3.00;94.80
14014;DHT22;49110;52.584;13.408;2024-03-08T01:59:52;2.90;95.00
14014;DHT22;49110;52.584;13.408;2024-03-08T02:00:58;2.80;95.20
14014;DHT22;49110;52.584;13.408;2024-03-08T02:02:01;2.80;95.40
14014;DHT22;49110;52.584;13.408;2024-03-08T02:03:03;2.80;95.50
14014;DHT22;49110;52.584;13.408;2024-03-08T02:04:04;2.70;95.30
14014;DHT22;49110;52.584;13.408;2024-03-08T02:05:07;2.80;95.40
14014;DHT22;49110;52.584;13.408;2024-03-08T02:06:08;2.80;95.40
14014;DHT22;49110;52.584;13.408;2024-03-08T02:07:10;2.80;95.30
14014;DHT22;49110;52.584;13.408;2024-03-08T02:08:11;2.80;95.30
14014;DHT22;49110;52.584;13.408;2024-03-08T02:09:14;2.80;95.30
14014;DHT22;49110;52.584;13.408;2024-03-08T02:10:15;2.70;95.30
14014;DHT22;49110;52.584;13.408;2024-03-08T02:11:16;2.70;95.40
14014;DHT22;49110;52.584;13.408;2024-03-08T02:12:16;2.70;95.40
14014;DHT22;49110;52.584;13.408;2024-03-08T02:13:17;2.70;95.60
14014;DHT22;49110;52.584;13.408;2024-03-08T02:14:17;2.70;95.60
14014;DHT22;49110;52.584;13.408;2024-03-08T02:15:19;2.60;95.50
14014;DHT22;49110;52.584;13.408;2024-03-08T02:16:21;2.60;95.70
14014;DHT22;49110;52.584;13.408;2024-03-08T02:17:21;2.60;95.90
14014;DHT22;49110;52.584;13.408;2024-03-08T02:18:22;2.60;95.70
14014;DHT22;49110;52.584;13.408;2024-03-08T02:19:23;2.60;95.80
14014;DHT22;49110;52.584;13.408;2024-03-08T02:20:24;2.60;95.80
14014;DHT22;49110;52.584;13.408;2024-03-08T02:21:25;2.60;95.80
14014;DHT22;49110;52.584;13.408;2024-03-08T02:22:25;2.60;95.70
14014;DHT22;49110;52.584;13.408;2024-03-08T02:23:26;2.60;95.90
14014;DHT22;49110;52.584;13.408;2024-03-08T02:24:27;2.60;95.80
14014;DHT22;49110;52.584;13.408;2024-03-08T02:25:28;2.60;96.00
14014;DHT22;49110;52.584;13.408;2024-03-08T02:26:28;2.50;95.90
14014;DHT22;49110;52.584;13.408;2024-03-08T02:27:29;2.50;95.90
14014;DHT22;49110;52.584;13.408;2024-03-08T02:28:30;2.50;96.00
14014;DHT22;49110;52.584;13.408;2024-03-08T02:29:31;2.50;96.00
14014;DHT22;49110;52.584;13.408;2024-03-08T02:30:34;2.50;96.20
14014;DHT22;49110;52.584;13.408;2024-03-08T02:31:34;2.50;96.30
14014;DHT22;49110;52.584;13.408;2024-03-08T02:32:35;2.60;96.10
14014;DHT22;49110;52.584;13.408;2024-03-08T02:33:36;2.50;96.10
14014;DHT22;49110;52.584;13.408;2024-03-08T02:34:36;2.50;96.00
14014;DHT22;49110;52.584;13.408;2024-03-08T02:35:37;2.50;96.10
14014;DHT22;49110;52.584;13.408;2024-03-08T02:36:37;2.40;96.20
14014;DHT22;49110;52.584;13.408;2024-03-08T02:37:38;2.40;96.30
14014;DHT22;49110;52.584;13.408;2024-03-08T02:38:38;2.40;96.50
14014;DHT22;49110;52.584;13.408;2024-03-08T02:39:41;2.40;96.40
14014;DHT22;49110;52.584;13.408;2024-03-08T02:40:42;2.40;96.50
14014;DHT22;49110;52.584;13.408;2024-03-08T02:41:43;2.40;96.60
14014;DHT22;49110;52.584;13.408;2024-03-08T02:42:44;2.60;97.00
14014;DHT22;49110;52.584;13.408;2024-03-08T02:43:44;2.60;96.90
14014;DHT22;49110;52.584;13.408;2024-03-08T02:44:45;2.80;97.10
14014;DHT22;49110;52.584;13.408;2024-03-08T02:45:46;2.80;97.00
14014;DHT22;49110;52.584;13.408;2024-03-08T02:46:47;3.00;96.80
14014;DHT22;49110;52.584;13.408;2024-03-08T02:47:47;3.10;96.70
14014;DHT22;49110;52.584;13.408;2024-03-08T02:48:50;3.10;96.20
14014;DHT22;49110;52.584;13.408;2024-03-08T02:49:54;3.00;95.90
14014;DHT22;49110;52.584;13.408;2024-03-08T02:50:55;2.90;95.70
14014;DHT22;49110;52.584;13.408;2024-03-08T02:51:56;2.70;95.80
14014;DHT22;49110;52.584;13.408;2024-03-08T02:52:57;2.50;96.10
14014;DHT22;49110;52.584;13.408;2024-03-08T02:53:58;2.50;96.30
14014;DHT22;49110;52.584;13.408;2024-03-08T02:54:58;2.50;96.60
14014;DHT22;49110;52.584;13.408;2024-03-08T02:55:59;2.50;96.60
14014;DHT22;49110;52.584;13.408;2024-03-08T02:56:59;2.50;96.70
14014;DHT22;49110;52.584;13.408;2024-03-08T02:58:00;2.60;96.80
14014;DHT22;49110;52.584;13.408;2024-03-08T02:59:00;2.60;96.50
14014;DHT22;49110;52.584;13.408;2024-03-08T03:00:01;2.60;96.70
14014;DHT22;49110;52.584;13.408;2024-03-08T03:01:02;2.70;96.90
14014;DHT22;49110;52.584;13.408;2024-03-08T03:02:03;2.80;96.70
14014;DHT22;49110;52.584;13.408;2024-03-08T03:03:04;2.90;96.60
14014;DHT22;49110;52.584;13.408;2024-03-08T03:04:05;3.00;96.40
14014;DHT22;49110;52.584;13.408;2024-03-08T03:05:05;3.00;96.20
14014;DHT22;49110;52.584;13.408;2024-03-08T03:06:06;3.10;95.90
14014;DHT22;49110;52.584;13.408;2024-03-08T03:07:07;3.10;95.80
14014;DHT22;49110;52.584;13.408;2024-03-08T03:08:08;3.10;95.80
14014;DHT22;49110;52.584;13.408;2024-03-08T03:09:09;3.20;95.90
14014;DHT22;49110;52.584;13.408;2024-03-08T03:10:10;3.20;95.80
14014;DHT22;49110;52.584;13.408;2024-03-08T03:11:12;3.20;95.90
14014;DHT22;49110;52.584;13.408;2024-03-08T03:12:13;3.20;95.90
14014;DHT22;49110;52.584;13.408;2024-03-08T03:13:14;3.20;96.10
14014;DHT22;49110;52.584;13.408;2024-03-08T03:14:14;3.20;96.00
14014;DHT22;49110;52.584;13.408;2024-03-08T03:15:17;3.20;96.20
14014;DHT22;49110;52.584;13.408;2024-03-08T03:16:19;3.30;96.20
14014;DHT22;49110;52.584;13.408;2024-03-08T03:17:23;3.30;96.00
14014;DHT22;49110;52.584;13.408;2024-03-08T03:18:24;3.20;95.90
14014;DHT22;49110;52.584;13.408;2024-03-08T03:19:26;3.20;95.90
14014;DHT22;49110;52.584;13.408;2024-03-08T03:20:28;3.10;95.80
14014;DHT22;49110;52.584;13.408;2024-03-08T03:21:33;3.10;95.80
14014;DHT22;49110;52.584;13.408;2024-03-08T03:22:39;3.00;95.90
14014;DHT22;49110;52.584;13.408;2024-03-08T03:23:41;2.80;95.80
14014;DHT22;49110;52.584;13.408;2024-03-08T03:24:45;2.60;96.00
14014;DHT22;49110;52.584;13.408;2024-03-08T03:25:46;2.60;96.50
14014;DHT22;49110;52.584;13.408;2024-03-08T03:26:47;2.60;96.50
14014;DHT22;49110;52.584;13.408;2024-03-08T03:27:49;2.70;96.70
14014;DHT22;49110;52.584;13.408;2024-03-08T03:28:50;2.70;96.70
14014;DHT22;49110;52.584;13.408;2024-03-08T03:29:50;2.90;96.50
14014;DHT22;49110;52.584;13.408;2024-03-08T03:30:52;2.80;96.40
14014;DHT22;49110;52.584;13.408;2024-03-08T03:31:53;2.70;96.30
14014;DHT22;49110;52.584;13.408;2024-03-08T03:32:53;2.70;96.70
14014;DHT22;49110;52.584;13.408;2024-03-08T03:34:00;2.70;96.60
14014;DHT22;49110;52.584;13.408;2024-03-08T03:35:05;2.50;96.70
14014;DHT22;49110;52.584;13.408;2024-03-08T03:36:06;2.40;96.70
14014;DHT22;49110;52.584;13.408;2024-03-08T03:37:09;2.40;96.90
14014;DHT22;49110;52.584;13.408;2024-03-08T03:38:12;2.30;97.20
14014;DHT22;49110;52.584;13.408;2024-03-08T03:39:14;2.30;97.20
14014;DHT22;49110;52.584;13.408;2024-03-08T03:40:16;2.40;97.30
14014;DHT22;49110;52.584;13.408;2024-03-08T03:41:19;2.40;97.30
14014;DHT22;49110;52.584;13.408;2024-03-08T03:42:19;2.50;97.30
14014;DHT22;49110;52.584;13.408;2024-03-08T03:43:20;2.50;97.20
14014;DHT22;49110;52.584;13.408;2024-03-08T03:44:20;2.50;97.00
14014;DHT22;49110;52.584;13.408;2024-03-08T03:45:24;2.40;97.00
14014;DHT22;49110;52.584;13.408;2024-03-08T03:46:25;2.40;97.30
14014;DHT22;49110;52.584;13.408;2024-03-08T03:47:27;2.40;96.90
14014;DHT22;49110;52.584;13.408;2024-03-08T03:48:28;2.40;97.10
14014;DHT22;49110;52.584;13.408;2024-03-08T03:49:28;2.50;97.10
14014;DHT22;49110;52.584;13.408;2024-03-08T03:50:29;2.50;97.10
14014;DHT22;49110;52.584;13.408;2024-03-08T03:51:29;2.50;97.10
14014;DHT22;49110;52.584;13.408;2024-03-08T03:52:30;2.50;96.90
14014;DHT22;49110;52.584;13.408;2024-03-08T03:53:31;2.60;97.10
14014;DHT22;49110;52.584;13.408;2024-03-08T03:54:32;2.60;96.90
14014;DHT22;49110;52.584;13.408;2024-03-08T03:55:34;2.60;97.20
14014;DHT22;49110;52.584;13.408;2024-03-08T03:56:35;2.40;96.70
14014;DHT22;49110;52.584;13.408;2024-03-08T03:57:35;2.30;96.80
14014;DHT22;49110;52.584;13.408;2024-03-08T03:58:36;2.20;97.00
14014;DHT22;49110;52.584;13.408;2024-03-08T03:59:36;2.20;97.20
14014;DHT22;49110;52.584;13.408;2024-03-08T04:00:37;2.20;97.60
14014;DHT22;49110;52.584;13.408;2024-03-08T04:01:42;2.20;97.40
14014;DHT22;49110;52.584;13.408;2024-03-08T04:02:42;2.30;97.40
14014;DHT22;49110;52.584;13.408;2024-03-08T04:03:43;2.30;97.90
14014;DHT22;49110;52.584;13.408;2024-03-08T04:04:43;2.40;97.40
14014;DHT22;49110;52.584;13.408;2024-03-08T04:05:46;2.50;97.70
14014;DHT22;49110;52.584;13.408;2024-03-08T04:06:47;2.60;97.50
14014;DHT22;49110;52.584;13.408;2024-03-08T04:07:48;2.60;96.90
14014;DHT22;49110;52.584;13.408;2024-03-08T04:08:48;2.50;96.90
14014;DHT22;49110;52.584;13.408;2024-03-08T04:09:49;2.50;96.90
14014;DHT22;49110;52.584;13.408;2024-03-08T04:10:50;2.40;97.10
14014;DHT22;49110;52.584;13.408;2024-03-08T04:11:51;2.50;97.20
14014;DHT22;49110;52.584;13.408;2024-03-08T04:12:53;2.50;97.10
14014;DHT22;49110;52.584;13.408;2024-03-08T04:13:53;2.50;97.20
14014;DHT22;49110;52.584;13.408;2024-03-08T04:14:54;2.50;96.90
14014;DHT22;49110;52.584;13.408;2024-03-08T04:15:55;2.40;96.90
14014;DHT22;49110;52.584;13.408;2024-03-08T04:16:56;2.40;97.10
14014;DHT22;49110;52.584;13.408;2024-03-08T04:17:56;2.40;97.10
14014;DHT22;49110;52.584;13.408;2024-03-08T04:18:58;2.40;97.30
14014;DHT22;49110;52.584;13.408;2024-03-08T04:19:58;2.50;97.30
14014;DHT22;49110;52.584;13.408;2024-03-08T04:20:59;2.50;97.10
14014;DHT22;49110;52.584;13.408;2024-03-08T04:21:59;2.50;97.20
14014;DHT22;49110;52.584;13.408;2024-03-08T04:23:02;2.60;97.10
14014;DHT22;49110;52.584;13.408;2024-03-08T04:24:02;2.70;97.10
14014;DHT22;49110;52.584;13.408;2024-03-08T04:25:03;2.70;96.90
14014;DHT22;49110;52.584;13.408;2024-03-08T04:26:04;2.80;96.90
14014;DHT22;49110;52.584;13.408;2024-03-08T04:27:06;2.90;96.80
14014;DHT22;49110;52.584;13.408;2024-03-08T04:28:07;2.90;96.70
14014;DHT22;49110;52.584;13.408;2024-03-08T04:29:07;2.90;96.70
14014;DHT22;49110;52.584;13.408;2024-03-08T04:30:08;2.90;96.60
14014;DHT22;49110;52.584;13.408;2024-03-08T04:31:09;2.90;96.60
14014;DHT22;49110;52.584;13.408;2024-03-08T04:32:10;2.90;96.70
14014;DHT22;49110;52.584;13.408;2024-03-08T04:33:13;2.90;96.70
14014;DHT22;49110;52.584;13.408;2024-03-08T04:34:16;2.90;96.60
14014;DHT22;49110;52.584;13.408;2024-03-08T04:35:17;2.80;96.60
14014;DHT22;49110;52.584;13.408;2024-03-08T04:36:17;2.80;96.70
14014;DHT22;49110;52.584;13.408;2024-03-08T04:37:18;2.80;96.80
14014;DHT22;49110;52.584;13.408;2024-03-08T04:38:22;2.80;96.70
14014;DHT22;49110;52.584;13.408;2024-03-08T04:39:22;2.80;96.80
14014;DHT22;49110;52.584;13.408;2024-03-08T04:40:23;2.80;96.80
14014;DHT22;49110;52.584;13.408;2024-03-08T04:41:24;2.80;96.70
14014;DHT22;49110;52.584;13.408;2024-03-08T04:42:25;2.80;96.60
14014;DHT22;49110;52.584;13.408;2024-03-08T04:43:28;2.90;96.70
14014;DHT22;49110;52.584;13.408;2024-03-08T04:44:30;2.90;96.40
14014;DHT22;49110;52.584;13.408;2024-03-08T04:45:31;2.90;96.30
14014;DHT22;49110;52.584;13.408;2024-03-08T04:46:32;2.90;96.30
14014;DHT22;49110;52.584;13.408;2024-03-08T04:47:32;2.90;96.20
14014;DHT22;49110;52.584;13.408;2024-03-08T04:48:33;2.90;96.40
14014;DHT22;49110;52.584;13.408;2024-03-08T04:49:34;2.90;96.40
14014;DHT22;49110;52.584;13.408;2024-03-08T04:50:34;2.80;96.30
14014;DHT22;49110;52.584;13.408;2024-03-08T04:51:35;2.70;96.40
14014;DHT22;49110;52.584;13.408;2024-03-08T04:52:35;2.70;96.50
14014;DHT22;49110;52.584;13.408;2024-03-08T04:53:36;2.60;96.50
14014;DHT22;49110;52.584;13.408;2024-03-08T04:54:37;2.50;96.60
14014;DHT22;49110;52.584;13.408;2024-03-08T04:55:37;2.40;96.60
14014;DHT22;49110;52.584;13.408;2024-03-08T04:56:38;2.40;96.90
14014;DHT22;49110;52.584;13.408;2024-03-08T04:57:39;2.40;97.20
14014;DHT22;49110;52.584;13.408;2024-03-08T04:58:39;2.50;97.20
14014;DHT22;49110;52.584;13.408;2024-03-08T04:59:40;2.60;97.20
14014;DHT22;49110;52.584;13.408;2024-03-08T05:00:40;2.60;97.10
14014;DHT22;49110;52.584;13.408;2024-03-08T05:01:41;2.70;97.10
14014;DHT22;49110;52.584;13.408;2024-03-08T05:02:42;2.70;97.00
14014;DHT22;49110;52.584;13.408;2024-03-08T05:03:42;2.70;96.90
14014;DHT22;49110;52.584;13.408;2024-03-08T05:04:43;2.80;96.90
14014;DHT22;49110;52.584;13.408;2024-03-08T05:05:43;2.80;96.80
14014;DHT22;49110;52.584;13.408;2024-03-08T05:06:44;2.80;96.80
14014;DHT22;49110;52.584;13.408;2024-03-08T05:07:44;2.80;96.80
14014;DHT22;49110;52.584;13.408;2024-03-08T05:08:46;2.80;96.80
14014;DHT22;49110;52.584;13.408;2024-03-08T05:09:46;2.80;96.70
14014;DHT22;49110;52.584;13.408;2024-03-08T05:10:51;2.80;96.60
14014;DHT22;49110;52.584;13.408;2024-03-08T05:11:52;2.70;96.50
14014;DHT22;49110;52.584;13.408;2024-03-08T05:12:52;2.60;96.50
14014;DHT22;49110;52.584;13.408;2024-03-08T05:13:53;2.50;96.70
14014;DHT22;49110;52.584;13.408;2024-03-08T05:14:54;2.50;96.90
14014;DHT22;49110;52.584;13.408;2024-03-08T05:15:55;2.50;97.10
14014;DHT22;49110;52.584;13.408;2024-03-08T05:16:58;2.60;97.30
14014;DHT22;49110;52.584;13.408;2024-03-08T05:17:59;2.50;97.20
14014;DHT22;49110;52.584;13.408;2024-03-08T05:19:00;2.50;97.20
14014;DHT22;49110;52.584;13.408;2024-03-08T05:20:00;2.60;97.10
14014;DHT22;49110;52.584;13.408;2024-03-08T05:21:01;2.60;97.00
14014;DHT22;49110;52.584;13.408;2024-03-08T05:22:04;2.60;97.00
14014;DHT22;49110;52.584;13.408;2024-03-08T05:23:05;2.60;96.90
14014;DHT22;49110;52.584;13.408;2024-03-08T05:24:05;2.60;96.90
14014;DHT22;49110;52.584;13.408;2024-03-08T05:25:06;2.50;97.20
14014;DHT22;49110;52.584;13.408;2024-03-08T05:26:08;2.50;96.90
14014;DHT22;49110;52.584;13.408;2024-03-08T05:27:09;2.40;97.20
14014;DHT22;49110;52.584;13.408;2024-03-08T05:28:09;2.30;97.20
14014;DHT22;49110;52.584;13.408;2024-03-08T05:29:10;2.20;97.20
14014;DHT22;49110;52.584;13.408;2024-03-08T05:30:10;2.10;97.20
14014;DHT22;49110;52.584;13.408;2024-03-08T05:31:21;2.10;97.40
14014;DHT22;49110;52.584;13.408;2024-03-08T05:32:24;2.00;97.70
14014;DHT22;49110;52.584;13.408;2024-03-08T05:33:25;2.00;97.90
14014;DHT22;49110;52.584;13.408;2024-03-08T05:34:25;2.10;98.10
14014;DHT22;49110;52.584;13.408;2024-03-08T05:35:28;2.20;98.10
14014;DHT22;49110;52.584;13.408;2024-03-08T05:36:29;2.20;97.90
14014;DHT22;49110;52.584;13.408;2024-03-08T05:37:30;2.30;97.90
14014;DHT22;49110;52.584;13.408;2024-03-08T05:38:31;2.40;97.70
14014;DHT22;49110;52.584;13.408;2024-03-08T05:39:32;2.40;97.50
14014;DHT22;49110;52.584;13.408;2024-03-08T05:40:33;2.50;97.60
14014;DHT22;49110;52.584;13.408;2024-03-08T05:41:34;2.50;97.50
14014;DHT22;49110;52.584;13.408;2024-03-08T05:42:35;2.60;97.60
14014;DHT22;49110;52.584;13.408;2024-03-08T05:43:36;2.60;97.60
14014;DHT22;49110;52.584;13.408;2024-03-08T05:44:37;2.60;97.30
14014;DHT22;49110;52.584;13.408;2024-03-08T05:45:38;2.70;97.40
14014;DHT22;49110;52.584;13.408;2024-03-08T05:46:39;2.70;97.30
14014;DHT22;49110;52.584;13.408;2024-03-08T05:47:40;2.70;97.10
14014;DHT22;49110;52.584;13.408;2024-03-08T05:48:40;2.60;97.00
14014;DHT22;49110;52.584;13.408;2024-03-08T05:49:49;2.50;96.90
14014;DHT22;49110;52.584;13.408;2024-03-08T05:50:52;2.30;97.20
14014;DHT22;49110;52.584;13.408;2024-03-08T05:51:53;2.20;97.20
14014;DHT22;49110;52.584;13.408;2024-03-08T05:52:57;2.10;97.50
14014;DHT22;49110;52.584;13.408;2024-03-08T05:53:57;2.00;97.70
14014;DHT22;49110;52.584;13.408;2024-03-08T05:54:58;1.90;97.80
14014;DHT22;49110;52.584;13.408;2024-03-08T05:55:59;1.80;98.00
14014;DHT22;49110;52.584;13.408;2024-03-08T05:57:09;1.90;98.20
14014;DHT22;49110;52.584;13.408;2024-03-08T05:58:09;1.90;98.40
14014;DHT22;49110;52.584;13.408;2024-03-08T05:59:12;2.10;98.10
14014;DHT22;49110;52.584;13.408;2024-03-08T06:00:12;2.00;98.00
14014;DHT22;49110;52.584;13.408;2024-03-08T06:01:16;2.00;98.00
14014;DHT22;49110;52.584;13.408;2024-03-08T06:02:16;2.20;98.20
14014;DHT22;49110;52.584;13.408;2024-03-08T06:03:19;2.30;98.10
14014;DHT22;49110;52.584;13.408;2024-03-08T06:04:21;2.30;98.20
14014;DHT22;49110;52.584;13.408;2024-03-08T06:05:22;2.40;98.20
14014;DHT22;49110;52.584;13.408;2024-03-08T06:06:25;2.50;97.80
14014;DHT22;49110;52.584;13.408;2024-03-08T06:07:26;2.50;97.60
14014;DHT22;49110;52.584;13.408;2024-03-08T06:08:26;2.50;97.70
14014;DHT22;49110;52.584;13.408;2024-03-08T06:09:31;2.50;97.80
14014;DHT22;49110;52.584;13.408;2024-03-08T06:10:31;2.60;97.80
14014;DHT22;49110;52.584;13.408;2024-03-08T06:11:32;2.70;97.60
14014;DHT22;49110;52.584;13.408;2024-03-08T06:12:33;2.70;97.50
14014;DHT22;49110;52.584;13.408;2024-03-08T06:13:37;2.70;97.40
14014;DHT22;49110;52.584;13.408;2024-03-08T06:14:38;2.80;97.30
14014;DHT22;49110;52.584;13.408;2024-03-08T06:15:39;2.80;97.10
14014;DHT22;49110;52.584;13.408;2024-03-08T06:16:39;2.80;97.00
14014;DHT22;49110;52.584;13.408;2024-03-08T06:17:41;2.90;97.00
14014;DHT22;49110;52.584;13.408;2024-03-08T06:18:41;2.90;96.90
14014;DHT22;49110;52.584;13.408;2024-03-08T06:19:42;2.90;97.00
14014;DHT22;49110;52.584;13.408;2024-03-08T06:20:43;2.90;96.80
14014;DHT22;49110;52.584;13.408;2024-03-08T06:21:44;2.90;96.80
14014;DHT22;49110;52.584;13.408;2024-03-08T06:22:44;2.90;96.80
14014;DHT22;49110;52.584;13.408;2024-03-08T06:23:45;2.90;96.70
14014;DHT22;49110;52.584;13.408;2024-03-08T06:24:45;2.90;96.90
14014;DHT22;49110;52.584;13.408;2024-03-08T06:25:47;2.90;96.80
14014;DHT22;49110;52.584;13.408;2024-03-08T06:26:48;2.90;96.80